Wetterdaten: Woche 20.09.10 - 26.09.10 (KW38)
Datum Zeit Temp. A. Feuchte A. Luftdruck Regen Wind Richtung Taupunkt Windchill Windben
20.09.2010 00:00 7,4 C 85 % 1017,1 hPa 0,0 l/m 0,0 km/h O-SO 5,0 C 7,4 C 0,0 km/h
20.09.2010 01:00 6,9 C 86 % 1017,1 hPa 0,0 l/m 0,0 km/h SO 4,7 C 6,9 C 0,0 km/h
20.09.2010 02:00 6,4 C 87 % 1017,2 hPa 0,0 l/m 0,0 km/h O-NO 4,4 C 6,4 C 0,0 km/h
20.09.2010 03:00 6,0 C 88 % 1016,8 hPa 0,0 l/m 0,0 km/h SO 4,2 C 6,0 C 0,0 km/h
20.09.2010 04:00 5,3 C 88 % 1016,8 hPa 0,0 l/m 0,0 km/h N-NO 3,5 C 5,3 C 0,0 km/h
20.09.2010 05:00 5,2 C 89 % 1017,1 hPa 0,0 l/m 0,0 km/h NO 3,5 C 5,2 C 0,0 km/h
20.09.2010 06:00 4,8 C 90 % 1016,9 hPa 0,0 l/m 0,0 km/h SO 3,3 C 4,8 C 0,0 km/h
20.09.2010 07:00 5,3 C 90 % 1017,1 hPa 0,0 l/m 0,0 km/h O-NO 3,8 C 5,3 C 0,0 km/h
20.09.2010 08:00 6,2 C 90 % 1017,5 hPa 0,0 l/m 0,0 km/h O-NO 4,7 C 6,2 C 0,0 km/h
20.09.2010 09:00 14,8 C 75 % 1017,8 hPa 0,0 l/m 0,0 km/h W-SW 10,4 C 14,8 C 0,0 km/h
20.09.2010 10:00 18,8 C 58 % 1017,5 hPa 0,0 l/m 0,0 km/h W 10,4 C 18,8 C 0,0 km/h
20.09.2010 11:00 22,8 C 46 % 1017,5 hPa 0,0 l/m 0,0 km/h W 10,6 C 22,8 C 0,0 km/h
20.09.2010 12:00 23,6 C 45 % 1017,1 hPa 0,0 l/m 1,3 km/h W-SW 11,0 C 23,6 C 0,7 km/h
20.09.2010 13:00 23,2 C 46 % 1016,2 hPa 0,0 l/m 3,9 km/h W 10,9 C 23,2 C 2,2 km/h
20.09.2010 14:00 23,5 C 45 % 1015,8 hPa 0,0 l/m 3,9 km/h S-SO 10,9 C 23,5 C 2,2 km/h
20.09.2010 15:00 25,8 C 40 % 1015,3 hPa 0,0 l/m 11,7 km/h W 11,2 C 24,8 C 6,5 km/h
20.09.2010 16:00 29,2 C 33 % 1015,3 hPa 0,0 l/m 0,0 km/h W 11,3 C 29,2 C 0,0 km/h
20.09.2010 17:00 29,8 C 30 % 1015,1 hPa 0,0 l/m 0,0 km/h NW 10,3 C 29,8 C 0,0 km/h
20.09.2010 18:00 28,1 C 33 % 1014,8 hPa 0,0 l/m 0,0 km/h NO 10,3 C 28,1 C 0,0 km/h
20.09.2010 19:00 16,9 C 62 % 1015,2 hPa 0,0 l/m 0,0 km/h SO 9,6 C 16,9 C 0,0 km/h
20.09.2010 20:00 13,1 C 74 % 1015,7 hPa 0,0 l/m 0,0 km/h NO 8,6 C 13,1 C 0,0 km/h
20.09.2010 21:00 11,9 C 80 % 1016,3 hPa 0,0 l/m 0,0 km/h NO 8,6 C 11,9 C 0,0 km/h
20.09.2010 22:00 11,1 C 83 % 1016,8 hPa 0,0 l/m 0,0 km/h SO 8,3 C 11,1 C 0,0 km/h
20.09.2010 23:00 10,5 C 85 % 1016,8 hPa 0,0 l/m 0,0 km/h NO 8,1 C 10,5 C 0,0 km/h
21.09.2010 00:00 10,1 C 86 % 1016,9 hPa 0,0 l/m 0,0 km/h NO 7,9 C 10,1 C 0,0 km/h
21.09.2010 01:00 9,3 C 87 % 1017,1 hPa 0,0 l/m 0,0 km/h NO 7,2 C 9,3 C 0,0 km/h
21.09.2010 02:00 8,9 C 88 % 1017,1 hPa 0,0 l/m 0,0 km/h NO 7,0 C 8,9 C 0,0 km/h
21.09.2010 03:00 8,7 C 89 % 1017,1 hPa 0,0 l/m 0,0 km/h N-NO 7,0 C 8,7 C 0,0 km/h
21.09.2010 04:00 7,9 C 89 % 1017,2 hPa 0,0 l/m 0,0 km/h N-NO 6,2 C 7,9 C 0,0 km/h
21.09.2010 05:00 7,3 C 90 % 1017,7 hPa 0,0 l/m 0,0 km/h N-NO 5,8 C 7,3 C 0,0 km/h
21.09.2010 06:00 6,6 C 90 % 1017,5 hPa 0,0 l/m 0,0 km/h NO 5,1 C 6,6 C 0,0 km/h
21.09.2010 07:00 6,7 C 90 % 1017,7 hPa 0,0 l/m 0,0 km/h NO 5,2 C 6,7 C 0,0 km/h
21.09.2010 08:00 7,8 C 91 % 1018,3 hPa 0,0 l/m 0,0 km/h W 6,4 C 7,8 C 0,0 km/h
21.09.2010 09:00 15,4 C 80 % 1018,7 hPa 0,0 l/m 0,0 km/h W 12,0 C 15,4 C 0,0 km/h
21.09.2010 10:00 19,8 C 64 % 1018,7 hPa 0,0 l/m 0,0 km/h NW 12,8 C 19,8 C 0,0 km/h
21.09.2010 11:00 23,2 C 52 % 1018,6 hPa 0,0 l/m 7,8 km/h NW 12,8 C 22,8 C 4,3 km/h
21.09.2010 12:00 24,5 C 49 % 1018,4 hPa 0,0 l/m 0,0 km/h W 13,1 C 24,5 C 0,0 km/h
21.09.2010 13:00 24,4 C 49 % 1018,1 hPa 0,0 l/m 3,2 km/h N-NW 13,0 C 24,4 C 1,8 km/h
21.09.2010 14:00 25,2 C 49 % 1017,7 hPa 0,0 l/m 0,0 km/h W 13,7 C 25,2 C 0,0 km/h
21.09.2010 15:00 27,9 C 40 % 1017,2 hPa 0,0 l/m 0,0 km/h W-NW 13,0 C 27,9 C 0,0 km/h
21.09.2010 16:00 28,6 C 41 % 1017,1 hPa 0,0 l/m 0,0 km/h W 14,0 C 28,6 C 0,0 km/h
21.09.2010 17:00 28,8 C 40 % 1017,0 hPa 0,0 l/m 0,0 km/h W-NW 13,8 C 28,8 C 0,0 km/h
21.09.2010 18:00 27,4 C 42 % 1017,0 hPa 0,0 l/m 0,0 km/h NW 13,3 C 27,4 C 0,0 km/h
21.09.2010 19:00 18,3 C 67 % 1017,4 hPa 0,0 l/m 0,0 km/h N-NW 12,1 C 18,3 C 0,0 km/h
21.09.2010 20:00 15,1 C 80 % 1017,9 hPa 0,0 l/m 0,0 km/h N-NO 11,7 C 15,1 C 0,0 km/h
21.09.2010 21:00 13,7 C 85 % 1018,5 hPa 0,0 l/m 0,0 km/h NO 11,2 C 13,7 C 0,0 km/h
21.09.2010 22:00 12,3 C 87 % 1018,7 hPa 0,0 l/m 0,0 km/h NO 10,2 C 12,3 C 0,0 km/h
21.09.2010 23:00 11,6 C 89 % 1019,1 hPa 0,0 l/m 0,0 km/h NO 9,8 C 11,6 C 0,0 km/h
22.09.2010 00:00 10,8 C 89 % 1019,2 hPa 0,0 l/m 0,0 km/h N-NO 9,1 C 10,8 C 0,0 km/h
22.09.2010 01:00 10,3 C 90 % 1019,1 hPa 0,0 l/m 0,0 km/h NO 8,7 C 10,3 C 0,0 km/h
22.09.2010 02:00 9,6 C 90 % 1019,0 hPa 0,0 l/m 0,0 km/h N-NO 8,0 C 9,6 C 0,0 km/h
22.09.2010 03:00 9,3 C 91 % 1019,1 hPa 0,0 l/m 0,0 km/h N-NO 7,9 C 9,3 C 0,0 km/h
22.09.2010 04:00 8,7 C 91 % 1019,3 hPa 0,0 l/m 1,9 km/h N-NO 7,3 C 8,7 C 1,1 km/h
22.09.2010 05:00 8,3 C 91 % 1019,4 hPa 0,0 l/m 0,0 km/h NO 6,9 C 8,3 C 0,0 km/h
22.09.2010 06:00 8,0 C 91 % 1019,0 hPa 0,0 l/m 0,0 km/h N-NO 6,6 C 8,0 C 0,0 km/h
22.09.2010 07:00 7,8 C 91 % 1019,3 hPa 0,0 l/m 0,0 km/h N-NO 6,4 C 7,8 C 0,0 km/h
22.09.2010 08:00 8,6 C 91 % 1019,5 hPa 0,0 l/m 0,0 km/h SW 7,2 C 8,6 C 0,0 km/h
22.09.2010 09:00 15,5 C 89 % 1020,0 hPa 0,0 l/m 0,0 km/h W 13,7 C 15,5 C 0,0 km/h
22.09.2010 10:00 20,1 C 69 % 1020,1 hPa 0,0 l/m 0,0 km/h W-NW 14,2 C 20,1 C 0,0 km/h
22.09.2010 11:00 24,3 C 55 % 1019,8 hPa 0,0 l/m 0,0 km/h N-NO 14,7 C 24,3 C 0,0 km/h
22.09.2010 12:00 23,5 C 55 % 1019,6 hPa 0,0 l/m 0,0 km/h S-SO 13,9 C 23,5 C 0,0 km/h
22.09.2010 13:00 24,3 C 53 % 1019,0 hPa 0,0 l/m 0,0 km/h SW 14,1 C 24,3 C 0,0 km/h
22.09.2010 14:00 25,9 C 47 % 1017,8 hPa 0,0 l/m 7,1 km/h N 13,7 C 25,7 C 4,0 km/h
22.09.2010 15:00 28,7 C 41 % 1017,3 hPa 0,0 l/m 3,9 km/h NW 14,1 C 28,7 C 2,2 km/h
22.09.2010 16:00 31,5 C 33 % 1017,0 hPa 0,0 l/m 0,0 km/h W-SW 13,2 C 31,5 C 0,0 km/h
22.09.2010 17:00 31,1 C 34 % 1016,7 hPa 0,0 l/m 0,0 km/h W-SW 13,4 C 31,1 C 0,0 km/h
22.09.2010 18:00 28,6 C 40 % 1016,6 hPa 0,0 l/m 0,0 km/h NO 13,7 C 28,6 C 0,0 km/h
22.09.2010 19:00 18,6 C 67 % 1016,2 hPa 0,0 l/m 0,0 km/h SO 12,3 C 18,6 C 0,0 km/h
22.09.2010 20:00 15,4 C 78 % 1016,5 hPa 0,0 l/m 0,0 km/h NO 11,6 C 15,4 C 0,0 km/h
22.09.2010 21:00 13,8 C 83 % 1016,8 hPa 0,0 l/m 0,0 km/h O 11,0 C 13,8 C 0,0 km/h
22.09.2010 22:00 13,0 C 85 % 1017,0 hPa 0,0 l/m 0,0 km/h N-NO 10,5 C 13,0 C 0,0 km/h
22.09.2010 23:00 12,2 C 87 % 1016,9 hPa 0,0 l/m 0,0 km/h O-SO 10,1 C 12,2 C 0,0 km/h
23.09.2010 00:00 11,4 C 88 % 1017,0 hPa 0,0 l/m 0,0 km/h O-NO 9,5 C 11,4 C 0,0 km/h
23.09.2010 01:00 10,9 C 89 % 1016,4 hPa 0,0 l/m 0,0 km/h SO 9,2 C 10,9 C 0,0 km/h
23.09.2010 02:00 10,5 C 90 % 1016,5 hPa 0,0 l/m 0,0 km/h NO 8,9 C 10,5 C 0,0 km/h
23.09.2010 03:00 10,1 C 90 % 1016,2 hPa 0,0 l/m 0,0 km/h NO 8,5 C 10,1 C 0,0 km/h
23.09.2010 04:00 9,6 C 90 % 1015,8 hPa 0,0 l/m 0,0 km/h NO 8,0 C 9,6 C 0,0 km/h
23.09.2010 05:00 9,4 C 91 % 1015,4 hPa 0,0 l/m 0,0 km/h SO 8,0 C 9,4 C 0,0 km/h
23.09.2010 06:00 9,1 C 91 % 1015,2 hPa 0,0 l/m 0,0 km/h O-NO 7,7 C 9,1 C 0,0 km/h
23.09.2010 07:00 9,1 C 91 % 1015,3 hPa 0,0 l/m 0,0 km/h N-NO 7,7 C 9,1 C 0,0 km/h
23.09.2010 08:00 9,8 C 91 % 1014,9 hPa 0,0 l/m 0,0 km/h NW 8,4 C 9,8 C 0,0 km/h
23.09.2010 09:00 16,8 C 88 % 1014,5 hPa 0,0 l/m 0,0 km/h NO 14,8 C 16,8 C 0,0 km/h
23.09.2010 10:00 22,6 C 66 % 1014,2 hPa 0,0 l/m 0,0 km/h W-NW 15,9 C 22,6 C 0,0 km/h
23.09.2010 11:00 27,8 C 50 % 1013,5 hPa 0,0 l/m 0,0 km/h W-SW 16,4 C 27,8 C 0,0 km/h
23.09.2010 12:00 26,7 C 50 % 1012,8 hPa 0,0 l/m 7,8 km/h S 15,4 C 26,4 C 4,3 km/h
23.09.2010 13:00 26,3 C 46 % 1012,1 hPa 0,0 l/m 18,8 km/h S 13,7 C 24,5 C 10,4 km/h
23.09.2010 14:00 27,1 C 43 % 1011,1 hPa 0,0 l/m 16,2 km/h W-SW 13,4 C 25,7 C 9,0 km/h
23.09.2010 15:00 28,8 C 40 % 1010,8 hPa 0,0 l/m 12,3 km/h W-SW 13,8 C 28,1 C 6,8 km/h
23.09.2010 16:00 28,4 C 40 % 1010,0 hPa 0,0 l/m 20,1 km/h W 13,5 C 27,1 C 11,2 km/h
23.09.2010 17:00 28,9 C 42 % 1009,3 hPa 0,0 l/m 13,6 km/h W 14,7 C 28,1 C 7,6 km/h
23.09.2010 18:00 29,6 C 40 % 1008,8 hPa 0,0 l/m 2,6 km/h O-SO 14,5 C 29,6 C 1,4 km/h
23.09.2010 19:00 20,1 C 65 % 1008,5 hPa 0,0 l/m 0,0 km/h O-NO 13,3 C 20,1 C 0,0 km/h
23.09.2010 20:00 16,9 C 77 % 1008,4 hPa 0,0 l/m 0,0 km/h NO 12,8 C 16,9 C 0,0 km/h
23.09.2010 21:00 15,7 C 83 % 1008,1 hPa 0,0 l/m 0,0 km/h SO 12,8 C 15,7 C 0,0 km/h
23.09.2010 22:00 15,0 C 84 % 1007,7 hPa 0,0 l/m 0,0 km/h SO 12,3 C 15,0 C 0,0 km/h
23.09.2010 23:00 14,4 C 85 % 1007,7 hPa 0,0 l/m 0,0 km/h S 11,9 C 14,4 C 0,0 km/h
24.09.2010 00:00 13,5 C 87 % 1008,5 hPa 0,0 l/m 3,2 km/h S-SO 11,4 C 13,5 C 1,8 km/h
24.09.2010 01:00 13,8 C 86 % 1007,7 hPa 0,0 l/m 7,1 km/h N 11,5 C 13,4 C 4,0 km/h
24.09.2010 02:00 14,3 C 84 % 1006,9 hPa 0,0 l/m 1,9 km/h NO 11,6 C 14,3 C 1,1 km/h
24.09.2010 03:00 13,2 C 86 % 1006,2 hPa 0,0 l/m 0,0 km/h NO 10,9 C 13,2 C 0,0 km/h
24.09.2010 04:00 13,0 C 87 % 1005,0 hPa 0,0 l/m 0,0 km/h O-SO 10,9 C 13,0 C 0,0 km/h
24.09.2010 05:00 12,8 C 88 % 1004,6 hPa 0,0 l/m 0,0 km/h NO 10,9 C 12,8 C 0,0 km/h
24.09.2010 06:00 13,5 C 87 % 1003,7 hPa 0,0 l/m 0,0 km/h O-SO 11,4 C 13,5 C 0,0 km/h
24.09.2010 07:00 13,9 C 86 % 1003,1 hPa 0,0 l/m 0,0 km/h O 11,6 C 13,9 C 0,0 km/h
24.09.2010 08:00 14,8 C 85 % 1002,9 hPa 0,0 l/m 0,0 km/h N-NO 12,3 C 14,8 C 0,0 km/h
24.09.2010 09:00 16,4 C 84 % 1002,6 hPa 0,0 l/m 0,0 km/h O-SO 13,7 C 16,4 C 0,0 km/h
24.09.2010 10:00 18,4 C 76 % 1001,9 hPa 0,0 l/m 0,0 km/h S 14,1 C 18,4 C 0,0 km/h
24.09.2010 11:00 19,8 C 68 % 1001,3 hPa 0,0 l/m 0,0 km/h W-SW 13,7 C 19,8 C 0,0 km/h
24.09.2010 12:00 19,0 C 68 % 1001,2 hPa 0,0 l/m 4,5 km/h S-SW 13,0 C 19,0 C 2,5 km/h
24.09.2010 13:00 18,1 C 73 % 1002,1 hPa 0,0 l/m 14,3 km/h SW 13,2 C 15,1 C 7,9 km/h
24.09.2010 14:00 15,4 C 85 % 1002,5 hPa 0,4 l/m 12,3 km/h SW 12,9 C 12,6 C 6,8 km/h
24.09.2010 15:00 13,9 C 89 % 1002,6 hPa 1,4 l/m 16,2 km/h S-SO 12,1 C 9,5 C 9,0 km/h
24.09.2010 16:00 13,6 C 88 % 1002,5 hPa 0,7 l/m 1,9 km/h SO 11,6 C 13,6 C 1,1 km/h
24.09.2010 17:00 13,8 C 86 % 1002,1 hPa 0,0 l/m 3,2 km/h SO 11,5 C 13,8 C 1,8 km/h
24.09.2010 18:00 13,6 C 85 % 1002,2 hPa 0,0 l/m 0,0 km/h S-SO 11,1 C 13,6 C 0,0 km/h
24.09.2010 19:00 12,7 C 88 % 1002,7 hPa 0,0 l/m 0,6 km/h S 10,8 C 12,7 C 0,4 km/h
24.09.2010 20:00 12,4 C 89 % 1003,4 hPa 0,4 l/m 8,4 km/h SW 10,6 C 11,1 C 4,7 km/h
24.09.2010 21:00 12,8 C 87 % 1003,8 hPa 0,0 l/m 14,3 km/h SW 10,7 C 8,8 C 7,9 km/h
24.09.2010 22:00 12,7 C 87 % 1003,9 hPa 0,0 l/m 7,1 km/h S-SW 10,6 C 12,3 C 4,0 km/h
24.09.2010 23:00 12,8 C 86 % 1003,5 hPa 0,0 l/m 23,3 km/h SW 10,5 C 6,0 C 13,0 km/h
25.09.2010 00:00 12,6 C 86 % 1003,6 hPa 0,0 l/m 20,1 km/h SW 10,3 C 6,6 C 11,2 km/h
25.09.2010 01:00 12,3 C 86 % 1003,1 hPa 0,0 l/m 3,2 km/h S-SO 10,0 C 12,3 C 1,8 km/h
25.09.2010 02:00 11,3 C 89 % 1002,8 hPa 0,4 l/m 0,0 km/h S 9,6 C 11,3 C 0,0 km/h
25.09.2010 03:00 11,1 C 90 % 1002,5 hPa 0,4 l/m 0,0 km/h W-SW 9,5 C 11,1 C 0,0 km/h
25.09.2010 04:00 11,1 C 90 % 1002,6 hPa 0,4 l/m 0,0 km/h SW 9,5 C 11,1 C 0,0 km/h
25.09.2010 05:00 11,0 C 91 % 1002,3 hPa 0,7 l/m 0,0 km/h W-SW 9,6 C 11,0 C 0,0 km/h
25.09.2010 06:00 10,9 C 91 % 1002,2 hPa 0,4 l/m 0,0 km/h W-SW 9,5 C 10,9 C 0,0 km/h
25.09.2010 07:00 10,9 C 91 % 1002,0 hPa 0,7 l/m 0,0 km/h W-SW 9,5 C 10,9 C 0,0 km/h
25.09.2010 08:00 11,1 C 91 % 1001,7 hPa 0,4 l/m 0,0 km/h S-SW 9,7 C 11,1 C 0,0 km/h
25.09.2010 09:00 11,6 C 91 % 1002,3 hPa 0,0 l/m 0,0 km/h W-SW 10,2 C 11,6 C 0,0 km/h
25.09.2010 10:00 11,9 C 91 % 1002,3 hPa 0,0 l/m 0,6 km/h N 10,5 C 11,9 C 0,4 km/h
25.09.2010 11:00 11,8 C 91 % 1002,6 hPa 1,1 l/m 0,0 km/h N-NW 10,4 C 11,8 C 0,0 km/h
25.09.2010 12:00 12,9 C 90 % 1002,8 hPa 0,0 l/m 0,0 km/h N-NO 11,3 C 12,9 C 0,0 km/h
25.09.2010 13:00 15,5 C 84 % 1003,1 hPa 0,0 l/m 5,2 km/h NW 12,8 C 15,5 C 2,9 km/h
25.09.2010 14:00 15,3 C 76 % 1003,1 hPa 0,0 l/m 20,7 km/h N 11,1 C 10,0 C 11,5 km/h
25.09.2010 15:00 12,3 C 85 % 1004,1 hPa 0,4 l/m 1,9 km/h NW 9,9 C 12,3 C 1,1 km/h
25.09.2010 16:00 11,3 C 85 % 1005,1 hPa 0,0 l/m 0,0 km/h N-NW 8,9 C 11,3 C 0,0 km/h
25.09.2010 17:00 10,4 C 88 % 1005,7 hPa 0,0 l/m 1,3 km/h N-NO 8,5 C 10,4 C 0,7 km/h
25.09.2010 18:00 10,3 C 87 % 1006,5 hPa 0,0 l/m 0,0 km/h S-SW 8,2 C 10,3 C 0,0 km/h
25.09.2010 19:00 10,4 C 88 % 1007,1 hPa 0,0 l/m 0,0 km/h S-SO 8,5 C 10,4 C 0,0 km/h
25.09.2010 20:00 9,8 C 90 % 1007,6 hPa 0,0 l/m 3,2 km/h SO 8,2 C 9,8 C 1,8 km/h
25.09.2010 21:00 9,3 C 90 % 1008,1 hPa 0,0 l/m 0,0 km/h SO 7,7 C 9,3 C 0,0 km/h
25.09.2010 22:00 8,9 C 91 % 1008,1 hPa 0,0 l/m 0,0 km/h SO 7,5 C 8,9 C 0,0 km/h
25.09.2010 23:00 8,8 C 91 % 1008,2 hPa 0,0 l/m 0,0 km/h SO 7,4 C 8,8 C 0,0 km/h
26.09.2010 00:00 8,8 C 91 % 1008,3 hPa 0,0 l/m 0,0 km/h SO 7,4 C 8,8 C 0,0 km/h
26.09.2010 01:00 8,9 C 91 % 1008,3 hPa 0,0 l/m 0,0 km/h SO 7,5 C 8,9 C 0,0 km/h
26.09.2010 02:00 8,2 C 91 % 1008,5 hPa 0,0 l/m 0,0 km/h SO 6,8 C 8,2 C 0,0 km/h
26.09.2010 03:00 8,5 C 91 % 1008,3 hPa 0,0 l/m 0,0 km/h N-NO 7,1 C 8,5 C 0,0 km/h
26.09.2010 04:00 7,9 C 92 % 1008,0 hPa 0,0 l/m 0,0 km/h NO 6,7 C 7,9 C 0,0 km/h
26.09.2010 05:00 7,7 C 92 % 1008,4 hPa 0,0 l/m 0,0 km/h O-SO 6,5 C 7,7 C 0,0 km/h
26.09.2010 06:00 7,6 C 92 % 1008,3 hPa 0,0 l/m 0,0 km/h S 6,4 C 7,6 C 0,0 km/h
26.09.2010 07:00 7,8 C 92 % 1008,2 hPa 0,0 l/m 0,6 km/h S-SO 6,6 C 7,8 C 0,4 km/h
26.09.2010 08:00 7,9 C 91 % 1008,0 hPa 0,0 l/m 0,0 km/h W 6,5 C 7,9 C 0,0 km/h
26.09.2010 09:00 12,7 C 83 % 1008,1 hPa 0,0 l/m 6,5 km/h W 9,9 C 12,7 C 3,6 km/h
26.09.2010 10:00 13,4 C 74 % 1008,1 hPa 0,0 l/m 0,0 km/h W 8,9 C 13,4 C 0,0 km/h
26.09.2010 11:00 16,3 C 62 % 1008,1 hPa 0,0 l/m 11,0 km/h W-SW 9,0 C 14,1 C 6,1 km/h
26.09.2010 12:00 12,9 C 70 % 1008,0 hPa 0,0 l/m 1,9 km/h SW 7,6 C 12,9 C 1,1 km/h
26.09.2010 13:00 13,3 C 71 % 1008,4 hPa 0,0 l/m 11,0 km/h S-SO 8,2 C 10,8 C 6,1 km/h
26.09.2010 14:00 14,7 C 71 % 1008,2 hPa 0,0 l/m 1,9 km/h NW 9,5 C 14,7 C 1,1 km/h
26.09.2010 15:00 12,3 C 76 % 1008,7 hPa 0,0 l/m 5,8 km/h O-NO 8,2 C 12,3 C 3,2 km/h
26.09.2010 16:00 13,9 C 73 % 1008,6 hPa 0,0 l/m 0,0 km/h S 9,1 C 13,9 C 0,0 km/h
26.09.2010 17:00 12,5 C 73 % 1008,8 hPa 0,0 l/m 6,5 km/h S-SW 7,8 C 12,5 C 3,6 km/h
26.09.2010 18:00 11,2 C 77 % 1009,1 hPa 0,0 l/m 0,0 km/h NO 7,3 C 11,2 C 0,0 km/h
26.09.2010 19:00 9,8 C 83 % 1009,4 hPa 0,0 l/m 0,0 km/h O-SO 7,1 C 9,8 C 0,0 km/h
26.09.2010 20:00 7,5 C 88 % 1009,6 hPa 0,0 l/m 0,0 km/h SO 5,6 C 7,5 C 0,0 km/h
26.09.2010 21:00 6,2 C 89 % 1010,0 hPa 0,0 l/m 0,0 km/h O-NO 4,5 C 6,2 C 0,0 km/h
26.09.2010 22:00 5,6 C 90 % 1010,5 hPa 0,0 l/m 0,0 km/h SO 4,1 C 5,6 C 0,0 km/h
26.09.2010 23:00 5,4 C 91 % 1010,6 hPa 0,0 l/m 0,0 km/h NO 4,1 C 5,4 C 0,0 km/h
Min-Datum _ 20.09.10 20.09.10 24.09.10 - 20.09.10 - 20.09.10 20.09.10 20.09.10
_ Min-Zeit 06:30 17:30 12:30 - 00:30 - 06:30 06:30 00:30
Minimum _ 4,8 C 30 % 1001,2 hPa - 0,0 km/h - 3,3 C 4,8 C 0,0 km/h
Max-Datum _ 22.09.10 26.09.10 22.09.10 24.09.10 24.09.10 - 23.09.10 22.09.10 24.09.10
_ Max-Zeit 16:30 04:30 10:30 15:30 23:30 - 11:30 16:30 23:30
Maximum _ 31,5 C 92 % 1020,1 hPa 1,4 l/m 23,3 km/h
SW
- 16,4 C 31,5 C 13,0 km/h
SW
Durchschnitt _ 14,6 C 77 % 1011,7 hPa #7,5 l/m 2,1 km/h NO 9,9 C 14,3 C 1,2 km/h